sensor_id;sensor_type;location;lat;lon;timestamp;pressure;altitude;pressure_sealevel;temperature;humidity
59337;BME280;45115;52.002;4.686;2023-05-02T00:01:26;102200.59;;;10.34;93.19
59337;BME280;45115;52.002;4.686;2023-05-02T00:03:53;102190.88;;;10.30;93.57
59337;BME280;45115;52.002;4.686;2023-05-02T00:06:20;102190.09;;;10.41;93.57
59337;BME280;45115;52.002;4.686;2023-05-02T00:08:49;102191.97;;;10.40;92.71
59337;BME280;45115;52.002;4.686;2023-05-02T00:11:15;102188.69;;;10.35;93.07
59337;BME280;45115;52.002;4.686;2023-05-02T00:13:42;102187.69;;;10.49;92.77
59337;BME280;45115;52.002;4.686;2023-05-02T00:16:09;102188.75;;;10.46;93.12
59337;BME280;45115;52.002;4.686;2023-05-02T00:18:36;102202.69;;;10.56;92.80
59337;BME280;45115;52.002;4.686;2023-05-02T00:21:03;102198.19;;;10.55;92.75
59337;BME280;45115;52.002;4.686;2023-05-02T00:23:30;102197.53;;;10.51;92.81
59337;BME280;45115;52.002;4.686;2023-05-02T00:25:58;102199.81;;;10.57;92.50
59337;BME280;45115;52.002;4.686;2023-05-02T00:28:25;102204.09;;;10.61;92.93
59337;BME280;45115;52.002;4.686;2023-05-02T00:30:52;102204.63;;;10.66;92.42
59337;BME280;45115;52.002;4.686;2023-05-02T00:33:18;102208.91;;;10.70;92.16
59337;BME280;45115;52.002;4.686;2023-05-02T00:35:45;102204.09;;;10.61;92.43
59337;BME280;45115;52.002;4.686;2023-05-02T00:38:11;102196.41;;;10.66;92.54
59337;BME280;45115;52.002;4.686;2023-05-02T00:40:42;102201.78;;;10.68;92.51
59337;BME280;45115;52.002;4.686;2023-05-02T00:43:11;102195.09;;;10.72;92.02
59337;BME280;45115;52.002;4.686;2023-05-02T00:45:38;102197.94;;;10.70;91.96
59337;BME280;45115;52.002;4.686;2023-05-02T00:48:06;102201.53;;;10.71;92.35
59337;BME280;45115;52.002;4.686;2023-05-02T00:50:34;102203.63;;;10.67;91.80
59337;BME280;45115;52.002;4.686;2023-05-02T00:53:02;102200.34;;;10.75;91.58
59337;BME280;45115;52.002;4.686;2023-05-02T00:55:30;102198.25;;;10.66;91.80
59337;BME280;45115;52.002;4.686;2023-05-02T00:57:58;102211.84;;;10.67;92.13
59337;BME280;45115;52.002;4.686;2023-05-02T01:00:35;102217.97;;;10.71;92.06
59337;BME280;45115;52.002;4.686;2023-05-02T01:03:13;102217.44;;;10.66;92.50
59337;BME280;45115;52.002;4.686;2023-05-02T01:05:49;102221.84;;;10.68;92.18
59337;BME280;45115;52.002;4.686;2023-05-02T01:08:33;102221.44;;;10.62;92.69
59337;BME280;45115;52.002;4.686;2023-05-02T01:11:05;102224.81;;;10.65;92.36
59337;BME280;45115;52.002;4.686;2023-05-02T01:13:34;102224.38;;;10.59;92.85
59337;BME280;45115;52.002;4.686;2023-05-02T01:16:06;102224.59;;;10.43;91.75
59337;BME280;45115;52.002;4.686;2023-05-02T01:18:37;102228.22;;;10.44;90.91
59337;BME280;45115;52.002;4.686;2023-05-02T01:21:08;102221.19;;;10.40;90.97
59337;BME280;45115;52.002;4.686;2023-05-02T01:23:42;102235.91;;;10.39;90.54
59337;BME280;45115;52.002;4.686;2023-05-02T01:26:16;102236.00;;;10.37;90.84
59337;BME280;45115;52.002;4.686;2023-05-02T01:28:59;102242.03;;;10.42;90.30
59337;BME280;45115;52.002;4.686;2023-05-02T01:31:30;102249.38;;;10.42;89.85
59337;BME280;45115;52.002;4.686;2023-05-02T01:33:59;102245.63;;;10.43;90.66
59337;BME280;45115;52.002;4.686;2023-05-02T01:36:29;102246.97;;;10.37;90.27
59337;BME280;45115;52.002;4.686;2023-05-02T01:38:58;102236.34;;;10.45;90.34
59337;BME280;45115;52.002;4.686;2023-05-02T01:41:26;102234.47;;;10.33;90.01
59337;BME280;45115;52.002;4.686;2023-05-02T01:43:56;102252.00;;;10.43;90.34
59337;BME280;45115;52.002;4.686;2023-05-02T01:46:29;102253.75;;;10.44;90.09
59337;BME280;45115;52.002;4.686;2023-05-02T01:48:57;102258.91;;;10.49;90.88
59337;BME280;45115;52.002;4.686;2023-05-02T01:51:27;102254.19;;;10.38;90.57
59337;BME280;45115;52.002;4.686;2023-05-02T01:53:58;102262.06;;;10.43;90.28
59337;BME280;45115;52.002;4.686;2023-05-02T01:56:28;102252.56;;;10.23;90.39
59337;BME280;45115;52.002;4.686;2023-05-02T01:58:58;102271.06;;;10.20;90.41
59337;BME280;45115;52.002;4.686;2023-05-02T02:01:28;102271.19;;;10.18;90.85
59337;BME280;45115;52.002;4.686;2023-05-02T02:03:56;102277.72;;;10.16;89.90
59337;BME280;45115;52.002;4.686;2023-05-02T02:06:24;102286.81;;;10.16;89.52
59337;BME280;45115;52.002;4.686;2023-05-02T02:08:52;102283.09;;;10.17;89.41
59337;BME280;45115;52.002;4.686;2023-05-02T02:11:24;102290.41;;;10.17;89.28
59337;BME280;45115;52.002;4.686;2023-05-02T02:13:57;102289.97;;;10.10;89.14
59337;BME280;45115;52.002;4.686;2023-05-02T02:16:30;102291.06;;;10.07;87.88
59337;BME280;45115;52.002;4.686;2023-05-02T02:19:03;102301.34;;;10.04;88.68
59337;BME280;45115;52.002;4.686;2023-05-02T02:21:33;102297.72;;;10.03;87.00
59337;BME280;45115;52.002;4.686;2023-05-02T02:24:02;102303.66;;;10.10;87.15
59337;BME280;45115;52.002;4.686;2023-05-02T02:26:31;102311.19;;;10.06;87.51
59337;BME280;45115;52.002;4.686;2023-05-02T02:28:58;102311.06;;;10.08;87.50
59337;BME280;45115;52.002;4.686;2023-05-02T02:31:30;102316.09;;;10.01;86.54
59337;BME280;45115;52.002;4.686;2023-05-02T02:33:57;102307.22;;;9.98;86.46
59337;BME280;45115;52.002;4.686;2023-05-02T02:36:28;102316.50;;;9.95;85.22
59337;BME280;45115;52.002;4.686;2023-05-02T02:39:03;102319.16;;;9.97;84.05
59337;BME280;45115;52.002;4.686;2023-05-02T02:41:37;102319.91;;;9.86;83.81
59337;BME280;45115;52.002;4.686;2023-05-02T02:44:13;102318.25;;;9.84;82.64
59337;BME280;45115;52.002;4.686;2023-05-02T02:46:59;102333.66;;;9.85;82.26
59337;BME280;45115;52.002;4.686;2023-05-02T02:49:34;102328.84;;;9.88;82.94
59337;BME280;45115;52.002;4.686;2023-05-02T02:52:08;102326.66;;;9.81;82.92
59337;BME280;45115;52.002;4.686;2023-05-02T02:54:40;102328.63;;;9.79;83.35
59337;BME280;45115;52.002;4.686;2023-05-02T02:57:15;102323.38;;;9.76;83.42
59337;BME280;45115;52.002;4.686;2023-05-02T02:59:50;102325.09;;;9.77;82.70
59337;BME280;45115;52.002;4.686;2023-05-02T03:02:27;102329.69;;;9.76;82.99
59337;BME280;45115;52.002;4.686;2023-05-02T03:04:56;102338.28;;;9.84;83.81
59337;BME280;45115;52.002;4.686;2023-05-02T03:07:26;102344.81;;;9.82;83.18
59337;BME280;45115;52.002;4.686;2023-05-02T03:09:53;102337.50;;;9.82;83.61
59337;BME280;45115;52.002;4.686;2023-05-02T03:12:22;102348.34;;;9.84;83.32
59337;BME280;45115;52.002;4.686;2023-05-02T03:14:50;102356.94;;;9.78;82.78
59337;BME280;45115;52.002;4.686;2023-05-02T03:17:16;102360.22;;;9.70;83.38
59337;BME280;45115;52.002;4.686;2023-05-02T03:19:48;102352.69;;;9.74;82.77
59337;BME280;45115;52.002;4.686;2023-05-02T03:22:15;102362.97;;;9.70;83.37
59337;BME280;45115;52.002;4.686;2023-05-02T03:24:41;102358.44;;;9.69;83.10
59337;BME280;45115;52.002;4.686;2023-05-02T03:27:10;102370.84;;;9.75;82.80
59337;BME280;45115;52.002;4.686;2023-05-02T03:29:40;102380.25;;;9.71;82.72
59337;BME280;45115;52.002;4.686;2023-05-02T03:32:08;102370.28;;;9.70;83.27
59337;BME280;45115;52.002;4.686;2023-05-02T03:34:37;102374.78;;;9.71;82.72
59337;BME280;45115;52.002;4.686;2023-05-02T03:37:08;102375.84;;;9.68;82.92
59337;BME280;45115;52.002;4.686;2023-05-02T03:39:34;102369.34;;;9.57;83.76
59337;BME280;45115;52.002;4.686;2023-05-02T03:42:03;102386.53;;;9.59;84.08
59337;BME280;45115;52.002;4.686;2023-05-02T03:44:30;102387.31;;;9.61;83.21
59337;BME280;45115;52.002;4.686;2023-05-02T03:46:57;102379.03;;;9.48;84.50
59337;BME280;45115;52.002;4.686;2023-05-02T03:49:24;102403.94;;;9.58;83.72
59337;BME280;45115;52.002;4.686;2023-05-02T03:51:53;102387.03;;;9.51;82.15
59337;BME280;45115;52.002;4.686;2023-05-02T03:54:26;102399.16;;;9.47;81.10
59337;BME280;45115;52.002;4.686;2023-05-02T03:56:54;102396.53;;;9.46;80.58
59337;BME280;45115;52.002;4.686;2023-05-02T03:59:31;102397.69;;;9.42;81.79
59337;BME280;45115;52.002;4.686;2023-05-02T04:01:58;102402.28;;;9.41;81.55
59337;BME280;45115;52.002;4.686;2023-05-02T04:04:35;102406.59;;;9.31;80.95
59337;BME280;45115;52.002;4.686;2023-05-02T04:07:03;102415.09;;;9.41;79.98
59337;BME280;45115;52.002;4.686;2023-05-02T04:09:33;102419.28;;;9.46;78.82
59337;BME280;45115;52.002;4.686;2023-05-02T04:12:05;102421.63;;;9.52;79.04
59337;BME280;45115;52.002;4.686;2023-05-02T04:14:35;102426.19;;;9.52;78.96
59337;BME280;45115;52.002;4.686;2023-05-02T04:17:03;102418.31;;;9.47;78.05
59337;BME280;45115;52.002;4.686;2023-05-02T04:19:36;102416.22;;;9.65;78.45
59337;BME280;45115;52.002;4.686;2023-05-02T04:22:03;102422.75;;;9.62;78.22
59337;BME280;45115;52.002;4.686;2023-05-02T04:24:35;102424.25;;;9.54;78.56
59337;BME280;45115;52.002;4.686;2023-05-02T04:27:02;102432.44;;;9.54;79.06
59337;BME280;45115;52.002;4.686;2023-05-02T04:29:29;102428.19;;;9.50;78.58
59337;BME280;45115;52.002;4.686;2023-05-02T04:31:57;102438.34;;;9.48;78.46
59337;BME280;45115;52.002;4.686;2023-05-02T04:34:29;102428.38;;;9.33;79.26
59337;BME280;45115;52.002;4.686;2023-05-02T04:36:56;102448.69;;;9.43;78.83
59337;BME280;45115;52.002;4.686;2023-05-02T04:39:24;102451.59;;;9.54;78.24
59337;BME280;45115;52.002;4.686;2023-05-02T04:42:15;102458.84;;;9.55;79.51
59337;BME280;45115;52.002;4.686;2023-05-02T04:44:55;102460.31;;;9.46;79.62
59337;BME280;45115;52.002;4.686;2023-05-02T04:47:22;102468.41;;;9.62;79.56
59337;BME280;45115;52.002;4.686;2023-05-02T04:49:48;102471.25;;;9.60;79.31
59337;BME280;45115;52.002;4.686;2023-05-02T04:52:15;102483.38;;;9.56;79.84
59337;BME280;45115;52.002;4.686;2023-05-02T04:54:43;102453.56;;;9.52;78.96
59337;BME280;45115;52.002;4.686;2023-05-02T04:57:10;102491.38;;;9.59;78.17
59337;BME280;45115;52.002;4.686;2023-05-02T04:59:42;102487.56;;;9.62;78.54
59337;BME280;45115;52.002;4.686;2023-05-02T05:02:10;102495.25;;;9.69;79.01
59337;BME280;45115;52.002;4.686;2023-05-02T05:04:37;102499.88;;;9.69;77.86
59337;BME280;45115;52.002;4.686;2023-05-02T05:07:04;102494.19;;;9.72;76.53
59337;BME280;45115;52.002;4.686;2023-05-02T05:09:31;102495.47;;;9.52;76.24
59337;BME280;45115;52.002;4.686;2023-05-02T05:14:53;102496.72;;;9.61;76.99
59337;BME280;45115;52.002;4.686;2023-05-02T05:17:24;102495.56;;;9.65;77.42
59337;BME280;45115;52.002;4.686;2023-05-02T05:19:51;102501.25;;;9.62;76.01
59337;BME280;45115;52.002;4.686;2023-05-02T05:22:18;102500.84;;;9.68;75.87
59337;BME280;45115;52.002;4.686;2023-05-02T05:24:51;102504.56;;;9.67;76.38
59337;BME280;45115;52.002;4.686;2023-05-02T05:27:18;102515.72;;;9.64;76.73
59337;BME280;45115;52.002;4.686;2023-05-02T05:29:46;102509.25;;;9.65;76.55
59337;BME280;45115;52.002;4.686;2023-05-02T05:32:15;102514.03;;;9.75;75.83
59337;BME280;45115;52.002;4.686;2023-05-02T05:34:42;102518.72;;;9.73;76.58
59337;BME280;45115;52.002;4.686;2023-05-02T05:37:09;102522.44;;;9.72;76.50
59337;BME280;45115;52.002;4.686;2023-05-02T05:39:36;102535.25;;;9.72;75.98
59337;BME280;45115;52.002;4.686;2023-05-02T05:42:04;102537.97;;;9.72;75.48
59337;BME280;45115;52.002;4.686;2023-05-02T05:44:34;102544.91;;;9.77;76.29
59337;BME280;45115;52.002;4.686;2023-05-02T05:47:01;102538.34;;;9.94;77.06
59337;BME280;45115;52.002;4.686;2023-05-02T05:49:30;102543.81;;;9.94;77.03
59337;BME280;45115;52.002;4.686;2023-05-02T05:52:01;102546.44;;;9.95;73.89
59337;BME280;45115;52.002;4.686;2023-05-02T05:54:28;102547.53;;;10.07;75.13
59337;BME280;45115;52.002;4.686;2023-05-02T05:56:54;102554.59;;;10.11;73.11
59337;BME280;45115;52.002;4.686;2023-05-02T05:59:21;102563.66;;;10.11;72.80
59337;BME280;45115;52.002;4.686;2023-05-02T06:01:48;102565.34;;;10.14;73.25
59337;BME280;45115;52.002;4.686;2023-05-02T06:04:18;102572.06;;;10.23;73.13
59337;BME280;45115;52.002;4.686;2023-05-02T06:06:49;102568.94;;;10.55;71.98
59337;BME280;45115;52.002;4.686;2023-05-02T06:09:19;102573.34;;;10.58;71.26
59337;BME280;45115;52.002;4.686;2023-05-02T06:11:46;102584.84;;;10.77;70.60
59337;BME280;45115;52.002;4.686;2023-05-02T06:14:13;102579.53;;;11.00;69.68
59337;BME280;45115;52.002;4.686;2023-05-02T06:16:41;102589.19;;;11.06;68.45
59337;BME280;45115;52.002;4.686;2023-05-02T06:19:08;102592.00;;;10.92;68.08
59337;BME280;45115;52.002;4.686;2023-05-02T06:21:35;102593.84;;;10.79;68.59
59337;BME280;45115;52.002;4.686;2023-05-02T06:24:04;102588.91;;;10.84;68.35
59337;BME280;45115;52.002;4.686;2023-05-02T06:26:30;102595.19;;;10.86;68.73
59337;BME280;45115;52.002;4.686;2023-05-02T06:28:57;102598.41;;;11.05;68.71
59337;BME280;45115;52.002;4.686;2023-05-02T06:31:24;102602.56;;;10.98;68.80
59337;BME280;45115;52.002;4.686;2023-05-02T06:33:51;102610.53;;;10.88;67.87
59337;BME280;45115;52.002;4.686;2023-05-02T06:36:17;102606.44;;;10.55;70.20
59337;BME280;45115;52.002;4.686;2023-05-02T06:38:44;102615.66;;;10.40;69.29
59337;BME280;45115;52.002;4.686;2023-05-02T06:41:13;102623.59;;;10.44;70.28
59337;BME280;45115;52.002;4.686;2023-05-02T06:43:40;102629.78;;;10.34;72.04
59337;BME280;45115;52.002;4.686;2023-05-02T06:46:07;102619.50;;;9.95;71.26
59337;BME280;45115;52.002;4.686;2023-05-02T06:48:34;102638.47;;;9.98;71.14
59337;BME280;45115;52.002;4.686;2023-05-02T06:51:01;102647.50;;;10.14;71.77
59337;BME280;45115;52.002;4.686;2023-05-02T06:53:28;102644.28;;;10.22;70.90
59337;BME280;45115;52.002;4.686;2023-05-02T06:55:55;102640.16;;;10.29;72.54
59337;BME280;45115;52.002;4.686;2023-05-02T06:58:23;102663.38;;;10.50;71.98
59337;BME280;45115;52.002;4.686;2023-05-02T07:00:50;102643.38;;;10.35;70.05
59337;BME280;45115;52.002;4.686;2023-05-02T07:03:16;102658.44;;;10.42;70.35
59337;BME280;45115;52.002;4.686;2023-05-02T07:05:43;102648.25;;;10.44;69.59
59337;BME280;45115;52.002;4.686;2023-05-02T07:08:10;102653.88;;;10.55;67.28
59337;BME280;45115;52.002;4.686;2023-05-02T07:10:36;102659.97;;;10.87;66.33
59337;BME280;45115;52.002;4.686;2023-05-02T07:13:03;102661.88;;;11.25;65.94
59337;BME280;45115;52.002;4.686;2023-05-02T07:15:31;102668.22;;;11.53;64.10
59337;BME280;45115;52.002;4.686;2023-05-02T07:17:58;102670.91;;;11.67;63.84
59337;BME280;45115;52.002;4.686;2023-05-02T07:20:25;102670.81;;;11.81;62.70
59337;BME280;45115;52.002;4.686;2023-05-02T07:22:54;102676.41;;;12.29;60.84
59337;BME280;45115;52.002;4.686;2023-05-02T07:25:20;102670.47;;;12.23;60.52
59337;BME280;45115;52.002;4.686;2023-05-02T07:27:47;102667.09;;;11.94;63.46
59337;BME280;45115;52.002;4.686;2023-05-02T07:30:14;102681.88;;;11.79;62.20
59337;BME280;45115;52.002;4.686;2023-05-02T07:32:42;102681.34;;;11.74;61.89
59337;BME280;45115;52.002;4.686;2023-05-02T07:35:09;102669.13;;;12.90;59.57
59337;BME280;45115;52.002;4.686;2023-05-02T07:37:35;102678.78;;;14.23;55.77
59337;BME280;45115;52.002;4.686;2023-05-02T07:40:02;102687.53;;;14.06;53.93
59337;BME280;45115;52.002;4.686;2023-05-02T07:42:29;102686.47;;;13.85;53.28
59337;BME280;45115;52.002;4.686;2023-05-02T07:44:56;102687.59;;;14.50;50.38
59337;BME280;45115;52.002;4.686;2023-05-02T07:47:23;102692.88;;;13.96;50.70
59337;BME280;45115;52.002;4.686;2023-05-02T07:49:53;102692.81;;;13.74;51.63
59337;BME280;45115;52.002;4.686;2023-05-02T07:52:19;102695.09;;;14.26;50.78
59337;BME280;45115;52.002;4.686;2023-05-02T07:54:47;102696.56;;;14.08;51.97
59337;BME280;45115;52.002;4.686;2023-05-02T07:57:14;102703.31;;;13.34;50.79
59337;BME280;45115;52.002;4.686;2023-05-02T07:59:40;102710.91;;;13.55;49.43
59337;BME280;45115;52.002;4.686;2023-05-02T08:02:07;102703.66;;;13.06;53.59
59337;BME280;45115;52.002;4.686;2023-05-02T08:04:34;102707.91;;;12.62;54.94
59337;BME280;45115;52.002;4.686;2023-05-02T08:07:05;102722.25;;;12.29;56.92
59337;BME280;45115;52.002;4.686;2023-05-02T08:09:32;102709.34;;;12.55;55.15
59337;BME280;45115;52.002;4.686;2023-05-02T08:11:59;102730.66;;;11.76;54.21
59337;BME280;45115;52.002;4.686;2023-05-02T08:14:27;102725.03;;;12.78;53.42
59337;BME280;45115;52.002;4.686;2023-05-02T08:16:54;102727.91;;;13.83;48.68
59337;BME280;45115;52.002;4.686;2023-05-02T08:19:20;102721.19;;;13.87;47.56
59337;BME280;45115;52.002;4.686;2023-05-02T08:21:47;102715.34;;;14.03;47.02
59337;BME280;45115;52.002;4.686;2023-05-02T08:24:15;102727.19;;;14.82;45.19
59337;BME280;45115;52.002;4.686;2023-05-02T08:26:42;102723.31;;;15.49;42.65
59337;BME280;45115;52.002;4.686;2023-05-02T08:29:08;102722.91;;;15.00;43.42
59337;BME280;45115;52.002;4.686;2023-05-02T08:31:36;102719.63;;;15.06;44.81
59337;BME280;45115;52.002;4.686;2023-05-02T08:34:03;102722.84;;;15.44;45.98
59337;BME280;45115;52.002;4.686;2023-05-02T08:36:30;102728.19;;;14.70;42.41
59337;BME280;45115;52.002;4.686;2023-05-02T08:38:57;102732.25;;;14.09;43.86
59337;BME280;45115;52.002;4.686;2023-05-02T08:41:28;102737.41;;;13.79;45.95
59337;BME280;45115;52.002;4.686;2023-05-02T08:43:55;102742.63;;;13.36;46.48
59337;BME280;45115;52.002;4.686;2023-05-02T08:46:22;102746.66;;;12.95;49.18
59337;BME280;45115;52.002;4.686;2023-05-02T08:48:49;102756.59;;;13.33;47.59
59337;BME280;45115;52.002;4.686;2023-05-02T08:51:16;102746.38;;;13.70;47.90
59337;BME280;45115;52.002;4.686;2023-05-02T08:53:44;102744.25;;;13.63;49.35
59337;BME280;45115;52.002;4.686;2023-05-02T08:56:11;102753.22;;;13.17;50.76
59337;BME280;45115;52.002;4.686;2023-05-02T08:58:40;102754.47;;;13.13;48.75
59337;BME280;45115;52.002;4.686;2023-05-02T09:01:09;102749.00;;;12.88;50.84
59337;BME280;45115;52.002;4.686;2023-05-02T09:03:44;102747.81;;;12.80;50.91
59337;BME280;45115;52.002;4.686;2023-05-02T09:06:14;102758.88;;;13.03;49.08
59337;BME280;45115;52.002;4.686;2023-05-02T09:08:42;102757.53;;;14.38;45.28
59337;BME280;45115;52.002;4.686;2023-05-02T09:11:10;102754.28;;;14.77;43.70
59337;BME280;45115;52.002;4.686;2023-05-02T09:13:40;102754.69;;;14.16;45.66
59337;BME280;45115;52.002;4.686;2023-05-02T09:16:09;102765.38;;;13.38;49.69
59337;BME280;45115;52.002;4.686;2023-05-02T09:18:39;102774.31;;;13.06;48.04
59337;BME280;45115;52.002;4.686;2023-05-02T09:21:09;102775.59;;;13.13;47.32
59337;BME280;45115;52.002;4.686;2023-05-02T09:23:41;102762.41;;;14.34;46.02
59337;BME280;45115;52.002;4.686;2023-05-02T09:26:18;102770.22;;;13.82;45.60
59337;BME280;45115;52.002;4.686;2023-05-02T09:28:49;102776.34;;;13.27;49.79
59337;BME280;45115;52.002;4.686;2023-05-02T09:31:17;102782.69;;;13.28;47.53
59337;BME280;45115;52.002;4.686;2023-05-02T09:33:45;102787.63;;;13.12;47.81
59337;BME280;45115;52.002;4.686;2023-05-02T09:36:14;102779.81;;;13.06;45.75
59337;BME280;45115;52.002;4.686;2023-05-02T09:38:42;102782.97;;;14.07;45.03
59337;BME280;45115;52.002;4.686;2023-05-02T09:41:10;102788.91;;;14.81;42.68
59337;BME280;45115;52.002;4.686;2023-05-02T09:43:37;102793.13;;;14.06;41.42
59337;BME280;45115;52.002;4.686;2023-05-02T09:46:07;102783.31;;;15.36;41.53
59337;BME280;45115;52.002;4.686;2023-05-02T09:48:50;102781.72;;;15.77;40.30
59337;BME280;45115;52.002;4.686;2023-05-02T09:51:19;102788.50;;;14.64;44.10
59337;BME280;45115;52.002;4.686;2023-05-02T09:53:46;102790.00;;;14.34;44.17
59337;BME280;45115;52.002;4.686;2023-05-02T09:56:13;102789.38;;;14.75;40.77
59337;BME280;45115;52.002;4.686;2023-05-02T09:58:40;102800.94;;;15.02;42.88
59337;BME280;45115;52.002;4.686;2023-05-02T10:01:13;102794.16;;;15.17;40.39
59337;BME280;45115;52.002;4.686;2023-05-02T10:03:40;102795.00;;;14.63;40.37
59337;BME280;45115;52.002;4.686;2023-05-02T10:06:08;102797.19;;;14.81;39.36
59337;BME280;45115;52.002;4.686;2023-05-02T10:08:35;102791.75;;;14.57;42.23
59337;BME280;45115;52.002;4.686;2023-05-02T10:11:04;102789.25;;;15.32;40.05
59337;BME280;45115;52.002;4.686;2023-05-02T10:13:33;102804.75;;;14.33;41.74
59337;BME280;45115;52.002;4.686;2023-05-02T10:16:05;102812.91;;;13.53;42.60
59337;BME280;45115;52.002;4.686;2023-05-02T10:18:41;102806.00;;;13.71;44.94
59337;BME280;45115;52.002;4.686;2023-05-02T10:21:10;102809.03;;;13.79;44.92
59337;BME280;45115;52.002;4.686;2023-05-02T10:23:40;102806.78;;;14.19;42.39
59337;BME280;45115;52.002;4.686;2023-05-02T10:26:09;102794.34;;;14.37;41.22
59337;BME280;45115;52.002;4.686;2023-05-02T10:28:39;102799.56;;;14.75;43.47
59337;BME280;45115;52.002;4.686;2023-05-02T10:31:09;102807.28;;;14.47;43.87
59337;BME280;45115;52.002;4.686;2023-05-02T10:33:38;102800.78;;;14.60;43.69
59337;BME280;45115;52.002;4.686;2023-05-02T10:36:08;102806.28;;;14.37;43.17
59337;BME280;45115;52.002;4.686;2023-05-02T10:38:37;102817.09;;;14.63;40.68
59337;BME280;45115;52.002;4.686;2023-05-02T10:41:08;102803.00;;;14.43;40.64
59337;BME280;45115;52.002;4.686;2023-05-02T10:43:35;102806.19;;;14.94;39.98
59337;BME280;45115;52.002;4.686;2023-05-02T10:46:30;102801.31;;;14.87;39.50
59337;BME280;45115;52.002;4.686;2023-05-02T10:49:03;102811.06;;;14.46;39.05
59337;BME280;45115;52.002;4.686;2023-05-02T10:51:31;102817.09;;;14.74;40.71
59337;BME280;45115;52.002;4.686;2023-05-02T10:54:23;102804.81;;;15.11;40.56
59337;BME280;45115;52.002;4.686;2023-05-02T10:57:06;102793.91;;;15.09;40.01
59337;BME280;45115;52.002;4.686;2023-05-02T10:59:35;102802.03;;;15.33;39.49
59337;BME280;45115;52.002;4.686;2023-05-02T11:02:02;102806.06;;;15.18;37.69
59337;BME280;45115;52.002;4.686;2023-05-02T11:05:00;102805.09;;;14.97;38.85
59337;BME280;45115;52.002;4.686;2023-05-02T11:07:28;102803.31;;;15.18;38.15
59337;BME280;45115;52.002;4.686;2023-05-02T11:10:23;102812.75;;;15.80;38.63
59337;BME280;45115;52.002;4.686;2023-05-02T11:12:52;102804.44;;;15.15;41.16
59337;BME280;45115;52.002;4.686;2023-05-02T11:15:54;102826.53;;;14.82;41.45
59337;BME280;45115;52.002;4.686;2023-05-02T11:18:24;102822.81;;;14.48;40.08
59337;BME280;45115;52.002;4.686;2023-05-02T11:21:25;102828.03;;;14.86;41.67
59337;BME280;45115;52.002;4.686;2023-05-02T11:27:35;102816.50;;;15.14;39.77
59337;BME280;45115;52.002;4.686;2023-05-02T11:30:04;102820.97;;;15.59;40.33
59337;BME280;45115;52.002;4.686;2023-05-02T11:33:10;102816.41;;;16.33;39.19
59337;BME280;45115;52.002;4.686;2023-05-02T11:35:41;102810.94;;;15.58;42.75
59337;BME280;45115;52.002;4.686;2023-05-02T11:38:12;102822.00;;;15.03;41.00
59337;BME280;45115;52.002;4.686;2023-05-02T11:40:39;102826.94;;;14.32;42.57
59337;BME280;45115;52.002;4.686;2023-05-02T11:43:12;102827.19;;;14.40;42.53
59337;BME280;45115;52.002;4.686;2023-05-02T11:45:40;102830.69;;;14.99;39.95
59337;BME280;45115;52.002;4.686;2023-05-02T11:48:10;102829.66;;;15.11;40.33
59337;BME280;45115;52.002;4.686;2023-05-02T11:50:41;102836.19;;;15.10;38.73
59337;BME280;45115;52.002;4.686;2023-05-02T11:53:14;102836.56;;;15.16;40.25
59337;BME280;45115;52.002;4.686;2023-05-02T11:55:45;102854.34;;;14.57;38.86
59337;BME280;45115;52.002;4.686;2023-05-02T11:58:14;102850.97;;;14.76;42.23
59337;BME280;45115;52.002;4.686;2023-05-02T12:00:41;102858.59;;;14.61;40.67
59337;BME280;45115;52.002;4.686;2023-05-02T12:03:21;102856.00;;;14.93;39.34
59337;BME280;45115;52.002;4.686;2023-05-02T12:05:49;102841.97;;;15.40;38.95
59337;BME280;45115;52.002;4.686;2023-05-02T12:08:21;102846.22;;;15.33;39.16
59337;BME280;45115;52.002;4.686;2023-05-02T12:10:50;102848.22;;;14.98;42.56
59337;BME280;45115;52.002;4.686;2023-05-02T12:13:19;102848.84;;;15.34;38.51
59337;BME280;45115;52.002;4.686;2023-05-02T12:15:47;102861.13;;;14.64;39.95
59337;BME280;45115;52.002;4.686;2023-05-02T12:18:14;102850.97;;;14.30;43.66
59337;BME280;45115;52.002;4.686;2023-05-02T12:20:42;102848.34;;;14.96;44.23
59337;BME280;45115;52.002;4.686;2023-05-02T12:23:09;102852.88;;;15.30;41.03
59337;BME280;45115;52.002;4.686;2023-05-02T12:25:39;102856.41;;;15.21;43.03
59337;BME280;45115;52.002;4.686;2023-05-02T12:28:06;102862.69;;;15.23;39.53
59337;BME280;45115;52.002;4.686;2023-05-02T12:30:34;102861.53;;;15.26;38.95
59337;BME280;45115;52.002;4.686;2023-05-02T12:33:03;102857.38;;;16.07;36.92
59337;BME280;45115;52.002;4.686;2023-05-02T12:35:31;102860.59;;;16.23;37.44
59337;BME280;45115;52.002;4.686;2023-05-02T12:38:09;102867.81;;;15.61;40.06
59337;BME280;45115;52.002;4.686;2023-05-02T12:40:36;102871.66;;;14.92;41.82
59337;BME280;45115;52.002;4.686;2023-05-02T12:43:05;102874.50;;;14.57;41.83
59337;BME280;45115;52.002;4.686;2023-05-02T12:45:35;102863.47;;;14.57;43.91
59337;BME280;45115;52.002;4.686;2023-05-02T12:48:17;102875.91;;;14.63;41.99
59337;BME280;45115;52.002;4.686;2023-05-02T12:50:44;102873.59;;;15.47;39.54
59337;BME280;45115;52.002;4.686;2023-05-02T12:53:11;102877.19;;;15.70;39.49
59337;BME280;45115;52.002;4.686;2023-05-02T12:55:38;102878.59;;;15.09;42.16
59337;BME280;45115;52.002;4.686;2023-05-02T12:58:08;102872.47;;;15.16;39.67
59337;BME280;45115;52.002;4.686;2023-05-02T13:00:37;102871.72;;;15.14;41.03
59337;BME280;45115;52.002;4.686;2023-05-02T13:03:04;102886.38;;;15.37;39.93
59337;BME280;45115;52.002;4.686;2023-05-02T13:05:31;102836.06;;;15.22;40.02
59337;BME280;45115;52.002;4.686;2023-05-02T13:07:58;102891.47;;;14.64;43.93
59337;BME280;45115;52.002;4.686;2023-05-02T13:10:25;102892.88;;;14.81;41.75
59337;BME280;45115;52.002;4.686;2023-05-02T13:12:52;102892.16;;;15.12;41.57